Latest Weather Observations for Frankston Beach

IDV60901

Issued at 4:11 am EST Wednesday 23 September 2020 (issued every 10 minutes, with the page automatically refreshed every 10 minutes)

About weather observations | Map of Melbourne area stations | Latest observations for Melbourne area | Other Formats
Station Details ID: 086371 Name: FRANKSTON BEACH Lat: -38.15 Lon: 145.12 Height: 6.0 m
Data from the previous 72 hours. | See also: Recent months at Frankston Beach
Date/Time
EST
Temp
°C
App
Temp
°C
Dew
Point
°C
Rel
Hum
%
Delta-T
°C
Wind Press
QNH
hPa
Press
MSL
hPa
Rain since
9am
mm
Dir  Spd
km/h
Gust
km/h
Spd
kts
Gust
kts
23/04:00am - - - - - NW 37 44 20 24 - - -
23/03:30am - - - - - NW 33 39 18 21 - - -
23/03:00am - - - - - WNW 35 44 19 24 - - -
23/02:30am - - - - - WNW 37 44 20 24 - - -
23/02:00am - - - - - WNW 43 52 23 28 - - -
23/01:30am - - - - - NW 35 41 19 22 - - -
23/01:00am - - - - - NW 32 37 17 20 - - -
23/12:30am - - - - - NW 30 37 16 20 - - -
23/12:00am - - - - - NW 37 44 20 24 - - -
 
Date/Time
EST
Temp
°C
App
Temp
°C
Dew
Point
°C
Rel
Hum
%
Delta-T
°C
Wind Press
QNH
hPa
Press
MSL
hPa
Rain since
9am
mm
Dir  Spd
km/h
Gust
km/h
Spd
kts
Gust
kts
22/11:30pm - - - - - NW 33 44 18 24 - - -
22/11:00pm - - - - - NW 30 37 16 20 - - -
22/10:30pm - - - - - NW 30 35 16 19 - - -
22/10:00pm - - - - - NW 28 35 15 19 - - -
22/09:30pm - - - - - NW 24 32 13 17 - - -
22/09:00pm - - - - - NW 32 35 17 19 - - -
22/08:30pm - - - - - WNW 28 35 15 19 - - -
22/08:00pm - - - - - WNW 24 30 13 16 - - -
22/07:30pm - - - - - W 28 32 15 17 - - -
22/07:00pm - - - - - W 35 41 19 22 - - -
22/06:30pm - - - - - W 37 44 20 24 - - -
22/06:00pm - - - - - W 46 57 25 31 - - -
22/05:30pm - - - - - WNW 41 52 22 28 - - -
22/05:00pm - - - - - W 43 52 23 28 - - -
22/04:58pm - - - - - WNW 41 52 22 28 - - -
22/04:30pm - - - - - WNW 39 48 21 26 - - -
22/04:00pm - - - - - WNW 56 76 30 41 - - -
22/03:48pm - - - - - WNW 43 67 23 36 - - -
22/03:47pm - - - - - WNW 39 52 21 28 - - -
22/03:30pm - - - - - NW 35 48 19 26 - - -
22/03:00pm - - - - - NW 46 57 25 31 - - -
22/02:30pm - - - - - NW 35 44 19 24 - - -
22/02:07pm - - - - - NNW 35 56 19 30 - - -
22/02:00pm - - - - - NNW 37 48 20 26 - - -
22/01:30pm - - - - - NNW 33 44 18 24 - - -
22/01:00pm - - - - - NNW 35 43 19 23 - - -
22/12:30pm - - - - - NW 32 39 17 21 - - -
22/12:00pm - - - - - NNW 32 39 17 21 - - -
22/11:30am - - - - - NW 33 46 18 25 - - -
22/11:00am - - - - - NNW 33 39 18 21 - - -
22/10:30am - - - - - NNW 32 39 17 21 - - -
22/10:00am - - - - - NNW 33 41 18 22 - - -
22/09:30am - - - - - NNW 35 43 19 23 - - -
22/09:00am - - - - - NNW 39 48 21 26 - - -
22/08:30am - - - - - NNW 37 44 20 24 - - -
22/08:00am - - - - - NNW 33 41 18 22 - - -
22/07:30am - - - - - NNW 37 48 20 26 - - -
22/07:00am - - - - - NNW 39 50 21 27 - - -
22/06:30am - - - - - NNW 33 41 18 22 - - -
22/06:00am - - - - - NNW 37 46 20 25 - - -
22/05:30am - - - - - NNW 33 37 18 20 - - -
22/05:00am - - - - - NNW 35 43 19 23 - - -
22/04:30am - - - - - NNW 37 44 20 24 - - -
22/04:00am - - - - - NNW 33 43 18 23 - - -
22/03:30am - - - - - NNW 32 35 17 19 - - -
22/03:00am - - - - - NNW 32 39 17 21 - - -
22/02:30am - - - - - N 28 35 15 19 - - -
22/02:00am - - - - - N 28 33 15 18 - - -
22/01:30am - - - - - N 28 32 15 17 - - -
22/01:00am - - - - - N 28 32 15 17 - - -
22/12:30am - - - - - N 26 32 14 17 - - -
22/12:00am - - - - - N 20 26 11 14 - - -
 
Date/Time
EST
Temp
°C
App
Temp
°C
Dew
Point
°C
Rel
Hum
%
Delta-T
°C
Wind Press
QNH
hPa
Press
MSL
hPa
Rain since
9am
mm
Dir  Spd
km/h
Gust
km/h
Spd
kts
Gust
kts
21/11:30pm - - - - - N 17 22 9 12 - - -
21/11:00pm - - - - - N 20 26 11 14 - - -
21/10:30pm - - - - - N 19 24 10 13 - - -
21/10:00pm - - - - - NNE 15 20 8 11 - - -
21/09:30pm - - - - - NE 13 19 7 10 - - -
21/09:00pm - - - - - NE 13 19 7 10 - - -
21/08:30pm - - - - - NNE 15 20 8 11 - - -
21/08:00pm - - - - - NNE 15 22 8 12 - - -
21/07:30pm - - - - - NNE 17 24 9 13 - - -
21/07:00pm - - - - - N 19 26 10 14 - - -
21/06:30pm - - - - - N 19 26 10 14 - - -
21/06:00pm - - - - - N 28 33 15 18 - - -
21/05:30pm - - - - - N 28 32 15 17 - - -
21/05:00pm - - - - - N 28 32 15 17 - - -
21/04:30pm - - - - - N 24 32 13 17 - - -
21/04:00pm - - - - - N 24 30 13 16 - - -
21/03:30pm - - - - - NNW 22 28 12 15 - - -
21/03:00pm - - - - - N 28 35 15 19 - - -
21/02:30pm - - - - - N 32 41 17 22 - - -
21/02:00pm - - - - - N 28 33 15 18 - - -
21/01:30pm - - - - - NNW 22 37 12 20 - - -
21/01:27pm - - - - - NNW 15 37 8 20 - - -
21/01:00pm - - - - - W 6 9 3 5 - - -
21/12:30pm - - - - - W 6 7 3 4 - - -
21/12:00pm - - - - - WNW 2 7 1 4 - - -
21/11:30am - - - - - WSW 6 9 3 5 - - -
21/11:00am - - - - - WSW 9 11 5 6 - - -
21/10:30am - - - - - WSW 19 20 10 11 - - -
21/10:00am - - - - - WSW 11 13 6 7 - - -
21/09:30am - - - - - WSW 7 9 4 5 - - -
21/09:00am - - - - - CALM 0 0 0 0 - - -
21/08:30am - - - - - CALM 0 0 0 0 - - -
21/08:00am - - - - - W 7 9 4 5 - - -
21/07:30am - - - - - WSW 6 9 3 5 - - -
21/07:00am - - - - - WSW 17 20 9 11 - - -
21/06:30am - - - - - WSW 22 26 12 14 - - -
21/06:00am - - - - - W 22 32 12 17 - - -
21/05:30am - - - - - WNW 28 35 15 19 - - -
21/05:00am - - - - - NNW 32 39 17 21 - - -
21/04:30am - - - - - NNW 37 48 20 26 - - -
21/04:18am - - - - - NW 26 44 14 24 - - -
21/04:00am - - - - - NW 22 30 12 16 - - -
21/03:30am - - - - - N 32 43 17 23 - - -
21/03:00am - - - - - N 32 41 17 22 - - -
21/02:30am - - - - - N 35 44 19 24 - - -
21/02:00am - - - - - N 32 39 17 21 - - -
21/01:30am - - - - - N 33 39 18 21 - - -
21/01:00am - - - - - N 30 39 16 21 - - -
21/12:30am - - - - - N 28 33 15 18 - - -
21/12:00am - - - - - N 20 28 11 15 - - -
 
Date/Time
EST
Temp
°C
App
Temp
°C
Dew
Point
°C
Rel
Hum
%
Delta-T
°C
Wind Press
QNH
hPa
Press
MSL
hPa
Rain since
9am
mm
Dir  Spd
km/h
Gust
km/h
Spd
kts
Gust
kts
20/11:30pm - - - - - N 26 33 14 18 - - -
20/11:00pm - - - - - N 13 19 7 10 - - -
20/10:30pm - - - - - N 17 22 9 12 - - -
20/10:00pm - - - - - NNE 17 26 9 14 - - -
20/09:30pm - - - - - NNE 17 24 9 13 - - -
20/09:00pm - - - - - NNE 17 26 9 14 - - -
20/08:30pm - - - - - NNE 17 24 9 13 - - -
20/08:00pm - - - - - NNE 13 19 7 10 - - -
20/07:30pm - - - - - NNE 13 17 7 9 - - -
20/07:00pm - - - - - N 15 20 8 11 - - -
20/06:30pm - - - - - N 20 26 11 14 - - -
20/06:00pm - - - - - NNW 17 22 9 12 - - -
20/05:30pm - - - - - NNW 28 32 15 17 - - -
20/05:00pm - - - - - NW 26 32 14 17 - - -
20/04:30pm - - - - - NW 20 26 11 14 - - -
20/04:00pm - - - - - NNW 19 22 10 12 - - -
20/03:30pm - - - - - NNW 20 26 11 14 - - -
20/03:00pm - - - - - NNW 20 26 11 14 - - -
20/02:30pm - - - - - NNW 26 30 14 16 - - -
20/02:00pm - - - - - NW 19 24 10 13 - - -
20/01:30pm - - - - - NW 20 26 11 14 - - -
20/01:00pm - - - - - NNW 26 33 14 18 - - -
20/12:30pm - - - - - N 26 32 14 17 - - -
20/12:00pm - - - - - N 26 32 14 17 - - -
20/11:30am - - - - - N 26 30 14 16 - - -
20/11:00am - - - - - NNW 22 30 12 16 - - -
20/10:30am - - - - - NNW 22 26 12 14 - - -
20/10:00am - - - - - N 26 33 14 18 - - -
20/09:30am - - - - - N 28 33 15 18 - - -
20/09:00am - - - - - N 26 33 14 18 - - -
20/08:30am - - - - - N 28 35 15 19 - - -
20/08:00am - - - - - N 19 24 10 13 - - -
20/07:30am - - - - - NNE 13 17 7 9 - - -
20/07:00am - - - - - NNE 19 30 10 16 - - -
20/06:30am - - - - - NE 19 30 10 16 - - -
20/06:00am - - - - - NNE 20 30 11 16 - - -
20/05:30am - - - - - NE 17 26 9 14 - - -
20/05:00am - - - - - NE 15 24 8 13 - - -
20/04:30am - - - - - NE 15 22 8 12 - - -

Latest Capital City Observations: Canberra | Sydney | Melbourne | Brisbane | Adelaide | Perth | Hobart | Darwin

Other formats

Comma delimited format used in spreadsheet applications
http://www.bom.gov.au/fwo/IDV60901/IDV60901.94871.axf

JavaScript Object Notation format (JSON) in row-major order
http://www.bom.gov.au/fwo/IDV60901/IDV60901.94871.json

Data quality

Most of these data are generated automatically and are frequently updated. Quality checks on data are not normally performed. It is possible for incorrect values to appear. Refer to information at About Latest Weather Observations and please check the disclaimer before using these data.